Time;durP1;ratioP1;P1;durP2;ratioP2;P2;SDS_P1;SDS_P2;PMS_P1;PMS_P2;Temp;Humidity;BMP_temperature;BMP_pressure;BME280_temperature;BME280_humidity;BME280_pressure;Samples;Min_cycle;Max_cycle;Signal;HPM_P1;HPM_P2
2022/01/05 00:01:42;;;;;;;0.50;0.50;;;7.80;25.60;;;;;;5070913;28;20446;-82
2022/01/05 00:04:11;;;;;;;0.43;0.43;;;7.70;99.90;;;;;;5062948;28;20467;-82
2022/01/05 00:06:39;;;;;;;0.70;0.40;;;7.70;99.90;;;;;;5057110;28;20475;-82
2022/01/05 00:09:07;;;;;;;0.40;0.40;;;7.80;99.90;;;;;;5062523;28;20474;-82
2022/01/05 00:11:39;;;;;;;0.40;0.40;;;7.90;99.90;;;;;;5066993;28;20444;-82
2022/01/05 00:14:07;;;;;;;0.40;0.40;;;7.90;99.90;;;;;;5063012;28;20496;-82
2022/01/05 00:16:37;;;;;;;0.43;0.43;;;7.70;99.90;;;;;;5065945;28;20531;-82
2022/01/05 00:19:05;;;;;;;0.80;0.50;;;7.60;99.90;;;;;;5052927;28;20467;-82
2022/01/05 00:21:34;;;;;;;0.40;0.40;;;7.60;99.90;;;;;;5052304;28;20462;-82
2022/01/05 00:24:02;;;;;;;0.40;0.40;;;7.40;99.90;;;;;;5050728;28;20478;-82
2022/01/05 00:26:30;;;;;;;0.40;0.40;;;7.20;1.00;;;;;;5067565;28;20788;-82
2022/01/05 00:28:58;;;;;;;0.40;0.40;;;7.30;1.00;;;;;;5052289;28;20448;-82
2022/01/05 00:31:27;;;;;;;0.40;0.40;;;7.30;1.00;;;;;;5053079;28;20444;-82
2022/01/05 00:33:57;;;;;;;0.43;0.43;;;7.50;99.90;;;;;;5064612;28;20994;-82
2022/01/05 00:36:25;;;;;;;0.40;0.40;;;7.60;99.90;;;;;;5065162;28;20443;-82
2022/01/05 00:38:53;;;;;;;0.40;0.40;;;7.60;99.90;;;;;;5066629;28;20700;-82
2022/01/05 00:41:21;;;;;;;0.40;0.40;;;7.50;99.90;;;;;;5053032;28;20470;-82
2022/01/05 00:43:50;;;;;;;0.40;0.40;;;7.60;99.90;;;;;;5052911;28;20476;-82
2022/01/05 00:46:18;;;;;;;0.50;0.50;;;7.50;99.90;;;;;;5053429;28;20459;-82
2022/01/05 00:48:46;;;;;;;0.40;0.40;;;7.40;1.00;;;;;;5052703;28;20444;-82
2022/01/05 00:51:16;;;;;;;0.40;0.40;;;7.50;99.90;;;;;;5052875;28;20468;-82
2022/01/05 00:53:45;;;;;;;1.33;0.57;;;7.50;99.90;;;;;;5057762;28;21010;-82
2022/01/05 00:56:13;;;;;;;0.40;0.40;;;7.70;99.90;;;;;;5059901;28;20454;-83
2022/01/05 00:58:41;;;;;;;0.90;0.50;;;7.70;99.90;;;;;;5070859;28;20533;-82
2022/01/05 01:01:09;;;;;;;0.40;0.40;;;7.90;99.90;;;;;;5070963;28;20463;-81
2022/01/05 01:03:39;;;;;;;0.90;0.43;;;8.10;99.90;;;;;;5052473;28;20534;-82
2022/01/05 01:06:08;;;;;;;0.40;0.40;;;7.70;99.90;;;;;;5052373;28;20452;-82
2022/01/05 01:08:37;;;;;;;0.40;0.40;;;7.50;99.90;;;;;;5070922;28;20455;-83
2022/01/05 01:11:06;;;;;;;0.50;0.50;;;7.60;99.90;;;;;;5056193;28;20460;-82
2022/01/05 01:13:34;;;;;;;0.47;0.47;;;7.70;99.90;;;;;;5052256;28;20476;-82
2022/01/05 01:16:03;;;;;;;0.43;0.43;;;7.60;99.90;;;;;;5050173;28;20451;-82
2022/01/05 01:18:33;;;;;;;0.30;0.30;;;7.70;99.90;;;;;;5050086;28;20443;-82
2022/01/05 01:21:01;;;;;;;0.30;0.30;;;7.60;99.90;;;;;;5051911;28;20943;-82
2022/01/05 01:23:29;;;;;;;0.40;0.40;;;7.60;99.90;;;;;;5048908;28;20480;-83
2022/01/05 01:25:59;;;;;;;1.17;0.40;;;7.50;99.90;;;;;;5067409;28;20451;-82
2022/01/05 01:28:27;;;;;;;0.40;0.40;;;7.60;99.90;;;;;;5080530;28;20458;-82
2022/01/05 01:30:55;;;;;;;0.40;0.40;;;7.70;99.90;;;;;;5054157;28;20460;-82
2022/01/05 01:33:23;;;;;;;0.40;0.40;;;7.70;99.90;;;;;;5052337;28;20587;-82
2022/01/05 01:35:51;;;;;;;0.87;0.40;;;7.60;99.90;;;;;;5051887;28;20458;-82
2022/01/05 01:38:20;;;;;;;0.40;0.40;;;7.70;99.90;;;;;;5056546;28;20450;-82
2022/01/05 01:40:49;;;;;;;0.40;0.40;;;7.50;99.90;;;;;;5063921;28;20460;-82
2022/01/05 01:43:19;;;;;;;0.40;0.40;;;7.20;1.00;;;;;;5058711;28;21059;-82
2022/01/05 01:45:47;;;;;;;0.37;0.37;;;7.10;1.00;;;;;;5058158;28;20459;-82
2022/01/05 01:48:16;;;;;;;0.40;0.40;;;7.20;99.90;;;;;;5063937;28;21004;-82
2022/01/05 01:50:44;;;;;;;0.40;0.40;;;7.10;99.90;;;;;;5065685;28;21056;-82
2022/01/05 01:53:12;;;;;;;0.50;0.50;;;7.50;28.70;;;;;;5064414;28;20475;-82
2022/01/05 01:55:41;;;;;;;0.40;0.40;;;7.10;99.90;;;;;;5065198;28;20454;-82
2022/01/05 01:58:09;;;;;;;0.40;0.40;;;7.10;99.90;;;;;;5070486;28;20451;-82
2022/01/05 02:00:39;;;;;;;0.40;0.40;;;7.20;99.90;;;;;;5056537;28;20458;-82
2022/01/05 02:03:07;;;;;;;0.40;0.40;;;7.30;1.00;;;;;;5051086;28;20476;-82
2022/01/05 02:05:35;;;;;;;0.50;0.40;;;7.20;99.90;;;;;;5051242;28;20448;-82
2022/01/05 02:08:04;;;;;;;0.40;0.40;;;7.10;99.90;;;;;;5050944;28;20454;-82
2022/01/05 02:10:32;;;;;;;0.43;0.43;;;6.80;99.90;;;;;;5051220;28;20479;-82
2022/01/05 02:13:01;;;;;;;0.77;0.53;;;6.80;67.70;;;;;;5059465;28;20471;-82
2022/01/05 02:15:29;;;;;;;0.43;0.43;;;6.70;99.90;;;;;;5066794;28;20450;-82
2022/01/05 02:18:10;;;;;;;0.40;0.40;;;6.90;1.00;;;;;;5049774;28;20463;-82
2022/01/05 02:20:38;;;;;;;0.50;0.50;;;7.30;1.00;;;;;;5066438;28;20467;-81
2022/01/05 02:23:08;;;;;;;0.70;0.60;;;7.00;1.00;;;;;;5068389;28;20549;-82
2022/01/05 02:25:36;;;;;;;0.40;0.40;;;7.10;99.90;;;;;;5054662;28;20459;-82
2022/01/05 02:28:04;;;;;;;0.40;0.40;;;7.00;1.00;;;;;;5050038;28;20552;-82
2022/01/05 02:30:33;;;;;;;0.70;0.53;;;6.90;24.90;;;;;;5062007;28;20526;-82
2022/01/05 02:33:01;;;;;;;0.50;0.50;;;7.00;1.00;;;;;;5051263;28;20463;-82
2022/01/05 02:35:30;;;;;;;0.50;0.50;;;7.30;1.00;;;;;;5050790;28;20459;-82
2022/01/05 02:37:58;;;;;;;0.50;0.50;;;6.90;99.90;;;;;;5048482;28;20511;-83
2022/01/05 02:40:28;;;;;;;0.50;0.50;;;6.90;99.90;;;;;;5061311;28;20445;-82
2022/01/05 02:42:57;;;;;;;0.57;0.57;;;6.80;1.00;;;;;;5052920;28;21037;-82
2022/01/05 02:45:26;;;;;;;1.03;0.40;;;6.80;99.90;;;;;;5050776;28;20998;-83
2022/01/05 02:47:55;;;;;;;0.60;0.60;;;7.10;99.90;;;;;;5048375;28;20464;-81
2022/01/05 02:50:23;;;;;;;0.60;0.60;;;6.90;99.90;;;;;;5061957;28;20451;-82
2022/01/05 02:52:52;;;;;;;0.53;0.53;;;6.90;1.00;;;;;;5057343;28;20232;-82
2022/01/05 02:55:20;;;;;;;0.60;0.60;;;6.90;24.50;;;;;;5057945;28;21223;-82
2022/01/05 02:57:49;;;;;;;0.40;0.40;;;7.20;99.90;;;;;;5063318;28;20455;-82
2022/01/05 03:00:18;;;;;;;0.40;0.40;;;6.90;5.80;;;;;;5050911;28;20460;-82
2022/01/05 03:02:46;;;;;;;0.83;0.50;;;6.90;1.00;;;;;;5050157;28;20471;-82
2022/01/05 03:05:15;;;;;;;0.50;0.50;;;7.10;99.90;;;;;;5049301;28;20984;-82
2022/01/05 03:07:43;;;;;;;0.50;0.50;;;7.10;99.90;;;;;;5063222;28;20522;-82
2022/01/05 03:10:13;;;;;;;0.40;0.40;;;7.00;1.00;;;;;;5050410;28;21009;-82
2022/01/05 03:12:43;;;;;;;0.40;0.40;;;6.90;33.30;;;;;;5070645;28;20228;-82
2022/01/05 03:15:13;;;;;;;0.47;0.47;;;6.70;99.90;;;;;;5068734;28;20459;-82
2022/01/05 03:17:42;;;;;;;0.50;0.50;;;6.80;1.00;;;;;;5070001;28;20455;-82
2022/01/05 03:20:12;;;;;;;0.40;0.40;;;6.50;1.00;;;;;;5070514;28;20446;-82
2022/01/05 03:22:41;;;;;;;0.40;0.40;;;6.30;1.00;;;;;;5055636;28;20471;-81
2022/01/05 03:25:15;;;;;;;0.40;0.40;;;6.30;1.00;;;;;;5050266;28;20262;-82
2022/01/05 03:27:45;;;;;;;0.40;0.40;;;6.40;1.00;;;;;;5066656;28;20516;-81
2022/01/05 03:30:18;;;;;;;0.40;0.40;;;6.40;1.00;;;;;;5051853;28;20240;-82
2022/01/05 03:33:07;;;;;;;0.30;0.30;;;6.60;1.00;;;;;;5054144;28;20228;-82
2022/01/05 03:35:39;;;;;;;0.80;0.40;;;6.30;99.90;;;;;;5054634;28;20451;-81
2022/01/05 03:38:08;;;;;;;0.40;0.40;;;6.20;1.00;;;;;;5053359;28;20197;-82
2022/01/05 03:40:37;;;;;;;0.43;0.40;;;6.20;1.00;;;;;;5063511;28;20262;-82
2022/01/05 03:43:07;;;;;;;0.40;0.40;;;6.20;99.90;;;;;;5064920;28;20236;-82
2022/01/05 03:45:38;;;;;;;0.40;0.40;;;6.40;99.90;;;;;;5056157;28;20200;-82
2022/01/05 03:48:08;;;;;;;0.40;0.40;;;6.40;1.00;;;;;;5053496;28;20559;-82
2022/01/05 03:50:37;;;;;;;0.40;0.40;;;6.30;1.00;;;;;;5072975;28;20571;-82
2022/01/05 03:53:06;;;;;;;0.40;0.40;;;6.20;99.90;;;;;;5073849;28;20242;-82
2022/01/05 03:55:36;;;;;;;0.40;0.40;;;6.50;1.00;;;;;;5069012;28;20209;-81
2022/01/05 03:58:05;;;;;;;0.37;0.37;;;6.10;1.00;;;;;;5064769;28;20234;-82
2022/01/05 04:00:35;;;;;;;0.40;0.40;;;6.00;99.90;;;;;;5060168;28;20446;-82
2022/01/05 04:03:05;;;;;;;0.40;0.40;;;6.00;66.60;;;;;;5062122;28;20232;-82
2022/01/05 04:05:33;;;;;;;0.40;0.40;;;6.10;1.00;;;;;;5067426;28;20233;-82
2022/01/05 04:08:01;;;;;;;0.30;0.30;;;6.20;1.00;;;;;;5065269;28;20464;-82
2022/01/05 04:10:30;;;;;;;0.45;0.43;;;6.10;1.00;;;;;;5068402;28;20668;-82
2022/01/05 04:12:58;;;;;;;0.77;0.40;;;5.90;1.00;;;;;;5063015;28;20246;-81
2022/01/05 04:15:26;;;;;;;0.40;0.40;;;6.10;99.90;;;;;;5070482;28;20204;-82
2022/01/05 04:17:55;;;;;;;0.50;0.50;;;6.30;99.90;;;;;;5072939;28;20237;-82
2022/01/05 04:20:24;;;;;;;0.80;0.40;;;6.80;99.90;;;;;;5059631;28;20204;-82
2022/01/05 04:22:52;;;;;;;0.30;0.30;;;6.50;99.90;;;;;;5057628;28;20282;-82
2022/01/05 04:25:20;;;;;;;0.30;0.30;;;6.50;1.00;;;;;;5053336;28;20205;-82
2022/01/05 04:27:49;;;;;;;0.40;0.40;;;6.10;99.90;;;;;;5061149;28;20189;-82
2022/01/05 04:30:17;;;;;;;0.40;0.40;;;6.20;1.00;;;;;;5057805;28;20660;-82
2022/01/05 04:32:45;;;;;;;0.40;0.40;;;6.40;99.90;;;;;;5061524;28;20229;-82
2022/01/05 04:35:35;;;;;;;0.40;0.40;;;6.50;1.00;;;;;;5053229;28;20216;-82
2022/01/05 04:38:03;;;;;;;0.40;0.40;;;6.40;1.00;;;;;;5050946;28;20219;-82
2022/01/05 04:40:32;;;;;;;0.40;0.40;;;6.30;1.00;;;;;;5052368;28;20478;-82
2022/01/05 04:43:00;;;;;;;0.40;0.40;;;6.30;1.00;;;;;;5052167;28;20226;-81
2022/01/05 04:45:28;;;;;;;0.40;0.40;;;6.50;1.00;;;;;;5051945;28;20201;-82
2022/01/05 04:47:57;;;;;;;0.40;0.40;;;6.70;99.90;;;;;;5050146;28;20486;-82
2022/01/05 04:50:25;;;;;;;0.37;0.37;;;7.00;24.90;;;;;;5052557;28;20611;-82
2022/01/05 04:52:54;;;;;;;0.40;0.40;;;7.30;99.90;;;;;;5052202;28;20483;-82
2022/01/05 04:55:22;;;;;;;0.40;0.40;;;7.40;24.00;;;;;;5052478;28;20963;-82
2022/01/05 04:57:51;;;;;;;0.30;0.30;;;7.50;1.00;;;;;;5051626;28;20973;-82
2022/01/05 05:00:19;;;;;;;0.77;0.40;;;7.50;1.00;;;;;;5052691;28;21086;-81
2022/01/05 05:02:48;;;;;;;0.30;0.30;;;7.60;1.00;;;;;;5052629;28;20468;-82
2022/01/05 05:05:17;;;;;;;0.30;0.30;;;7.60;1.00;;;;;;5052303;28;20452;-82
2022/01/05 05:07:45;;;;;;;0.30;0.30;;;7.40;99.90;;;;;;5051199;28;20452;-82
2022/01/05 05:10:14;;;;;;;0.40;0.40;;;7.20;1.00;;;;;;5052612;28;20462;-82
2022/01/05 05:12:43;;;;;;;0.40;0.40;;;7.40;99.90;;;;;;5066317;28;20478;-82
2022/01/05 05:15:11;;;;;;;0.40;0.40;;;7.20;1.00;;;;;;5062705;28;20483;-82
2022/01/05 05:17:39;;;;;;;0.40;0.40;;;7.20;1.00;;;;;;5051717;28;20455;-82
2022/01/05 05:20:08;;;;;;;0.40;0.40;;;7.10;1.00;;;;;;5052121;28;20455;-82
2022/01/05 05:22:36;;;;;;;0.40;0.40;;;6.90;99.90;;;;;;5062237;28;20489;-82
2022/01/05 05:25:05;;;;;;;0.40;0.40;;;7.20;99.90;;;;;;5051960;28;20515;-82
2022/01/05 05:27:34;;;;;;;0.40;0.40;;;7.50;1.00;;;;;;5079257;28;20468;-82
2022/01/05 05:30:15;;;;;;;0.40;0.40;;;7.60;1.00;;;;;;5071460;28;20973;-82
2022/01/05 05:32:43;;;;;;;0.50;0.40;;;7.80;99.90;;;;;;5058235;28;20820;-85
2022/01/05 05:35:11;;;;;;;0.50;0.50;;;8.00;99.90;;;;;;5070924;28;20465;-82
2022/01/05 05:37:39;;;;;;;0.57;0.57;;;8.10;99.90;;;;;;5051065;28;20886;-82
2022/01/05 05:40:09;;;;;;;0.50;0.50;;;8.10;54.20;;;;;;5068937;28;20506;-82
2022/01/05 05:42:38;;;;;;;0.50;0.50;;;8.20;16.10;;;;;;5067861;28;20468;-82
2022/01/05 05:45:08;;;;;;;0.30;0.30;;;8.20;1.00;;;;;;5060785;28;20451;-82
2022/01/05 05:47:36;;;;;;;0.40;0.40;;;8.10;1.00;;;;;;5070809;28;20512;-82
2022/01/05 05:50:05;;;;;;;0.40;0.40;;;7.70;1.00;;;;;;5061144;28;20539;-82
2022/01/05 05:52:34;;;;;;;0.40;0.40;;;7.80;1.00;;;;;;5064304;28;20511;-82
2022/01/05 05:55:02;;;;;;;0.50;0.40;;;7.60;99.90;;;;;;5050865;28;20944;-81
2022/01/05 05:57:43;;;;;;;0.80;0.30;;;7.50;99.90;;;;;;5050406;28;20463;-81
2022/01/05 06:00:13;;;;;;;0.40;0.40;;;7.50;99.90;;;;;;5051177;28;20455;-82
2022/01/05 06:02:41;;;;;;;0.63;0.50;;;7.50;99.90;;;;;;5070008;28;20975;-82
2022/01/05 06:05:10;;;;;;;0.40;0.40;;;7.40;99.90;;;;;;5071543;28;20491;-82
2022/01/05 06:07:38;;;;;;;1.37;0.50;;;7.50;99.90;;;;;;5056698;28;20444;-81
2022/01/05 06:10:07;;;;;;;0.50;0.50;;;7.50;99.90;;;;;;5059373;28;20451;-81
2022/01/05 06:12:35;;;;;;;0.40;0.40;;;7.50;99.90;;;;;;5055508;28;20498;-81
2022/01/05 06:15:05;;;;;;;0.40;0.40;;;7.50;99.90;;;;;;5068880;28;20935;-82
2022/01/05 06:17:34;;;;;;;0.50;0.50;;;7.60;99.90;;;;;;5051317;28;20598;-82
2022/01/05 06:20:04;;;;;;;0.70;0.67;;;7.60;99.90;;;;;;5050470;28;20505;-82
2022/01/05 06:22:33;;;;;;;0.50;0.50;;;7.60;99.90;;;;;;5050223;28;20479;-82
2022/01/05 06:25:01;;;;;;;0.83;0.47;;;7.60;99.90;;;;;;5050826;28;20451;-82
2022/01/05 06:27:29;;;;;;;0.50;0.50;;;7.60;99.90;;;;;;5059434;28;20478;-82
2022/01/05 06:29:57;;;;;;;0.50;0.50;;;7.60;99.90;;;;;;5054056;28;21012;-81
2022/01/05 06:32:27;;;;;;;2.00;0.40;;;7.60;99.90;;;;;;5050154;28;20483;-82
2022/01/05 06:34:55;;;;;;;0.50;0.50;;;7.60;99.90;;;;;;5050521;28;20469;-82
2022/01/05 06:37:23;;;;;;;0.50;0.40;;;7.50;99.90;;;;;;5049292;28;20468;-82
2022/01/05 06:39:51;;;;;;;0.80;0.80;;;7.50;99.90;;;;;;5053909;28;20946;-82
2022/01/05 06:42:20;;;;;;;0.50;0.50;;;7.50;99.90;;;;;;5049846;28;20490;-82
2022/01/05 06:44:48;;;;;;;0.60;0.40;;;7.40;99.90;;;;;;5050065;28;20862;-82
2022/01/05 06:47:16;;;;;;;0.40;0.40;;;7.40;99.90;;;;;;5055649;28;20466;-81
2022/01/05 06:49:45;;;;;;;0.40;0.40;;;7.50;99.90;;;;;;5057118;28;20464;-81
2022/01/05 06:52:14;;;;;;;0.57;0.57;;;7.60;99.90;;;;;;5049608;28;21020;-82
2022/01/05 06:54:42;;;;;;;0.50;0.50;;;7.60;99.90;;;;;;5062520;28;20817;-81
2022/01/05 06:57:11;;;;;;;0.50;0.50;;;7.60;99.90;;;;;;5069910;28;20981;-81
2022/01/05 06:59:39;;;;;;;0.57;0.50;;;7.60;99.90;;;;;;5056606;28;20448;-82
2022/01/05 07:02:07;;;;;;;0.50;0.50;;;7.60;99.90;;;;;;5049833;28;20655;-81
2022/01/05 07:04:36;;;;;;;0.50;0.50;;;7.60;99.90;;;;;;5049722;28;20447;-81
2022/01/05 07:07:06;;;;;;;0.73;0.50;;;7.60;99.90;;;;;;5069458;28;20508;-83
2022/01/05 07:09:34;;;;;;;0.40;0.40;;;7.60;99.90;;;;;;5056703;28;20471;-82
2022/01/05 07:12:03;;;;;;;0.63;0.50;;;7.60;99.90;;;;;;5049992;28;20484;-82
2022/01/05 07:14:31;;;;;;;0.50;0.50;;;7.60;99.90;;;;;;5061206;28;20528;-82
2022/01/05 07:17:00;;;;;;;4.83;0.50;;;7.40;99.90;;;;;;5064100;28;20892;-82
2022/01/05 07:19:28;;;;;;;0.50;0.50;;;7.40;99.90;;;;;;5061867;28;20926;-82
2022/01/05 07:21:56;;;;;;;0.50;0.50;;;7.40;99.90;;;;;;5057638;28;20467;-80
2022/01/05 07:24:26;;;;;;;0.40;0.40;;;7.50;99.90;;;;;;5049907;28;20474;-82
2022/01/05 07:26:54;;;;;;;0.50;0.50;;;7.50;99.90;;;;;;5055744;28;20455;-82
2022/01/05 07:29:22;;;;;;;0.70;0.50;;;7.50;99.90;;;;;;5069434;28;20830;-82
2022/01/05 07:31:51;;;;;;;0.70;0.50;;;7.50;99.90;;;;;;5048682;28;20513;-82
2022/01/05 07:34:19;;;;;;;1.10;0.80;;;7.40;99.90;;;;;;5049514;28;20564;-82
2022/01/05 07:36:47;;;;;;;0.50;0.50;;;7.30;99.90;;;;;;5049828;28;20462;-82
2022/01/05 07:39:15;;;;;;;1.23;0.60;;;7.20;99.90;;;;;;5062568;28;20529;-82
2022/01/05 07:41:45;;;;;;;0.80;0.77;;;7.20;99.90;;;;;;5050411;28;20455;-80
2022/01/05 07:44:13;;;;;;;0.80;0.80;;;7.20;99.90;;;;;;5050155;28;20478;-82
2022/01/05 07:46:41;;;;;;;2.23;0.60;;;7.20;99.90;;;;;;5053870;28;20451;-82
2022/01/05 07:49:10;;;;;;;0.70;0.60;;;7.20;99.90;;;;;;5064352;28;20447;-82
2022/01/05 07:51:38;;;;;;;1.17;0.63;;;7.20;99.90;;;;;;5061348;28;20472;-82
2022/01/05 07:54:06;;;;;;;0.70;0.70;;;7.30;99.90;;;;;;5049621;28;20482;-82
2022/01/05 07:56:34;;;;;;;0.80;0.67;;;7.30;99.90;;;;;;5049434;28;20459;-82
2022/01/05 07:59:04;;;;;;;1.37;0.90;;;7.30;99.90;;;;;;5048457;28;20443;-81
2022/01/05 08:01:32;;;;;;;0.70;0.70;;;7.30;99.90;;;;;;5049395;28;20457;-82
2022/01/05 08:04:01;;;;;;;1.37;0.70;;;7.10;99.90;;;;;;5049498;28;20987;-81
2022/01/05 08:06:29;;;;;;;0.77;0.70;;;7.10;99.90;;;;;;5058388;28;20466;-82
2022/01/05 08:08:57;;;;;;;1.03;0.70;;;7.10;99.90;;;;;;5052856;28;20447;-82
2022/01/05 08:11:25;;;;;;;0.97;0.90;;;7.00;99.90;;;;;;5049688;28;20486;-81
2022/01/05 08:13:54;;;;;;;2.97;0.70;;;7.00;99.90;;;;;;5059900;28;20525;-82
2022/01/05 08:16:23;;;;;;;2.63;0.90;;;6.90;99.90;;;;;;5049287;28;20448;-82
2022/01/05 08:18:51;;;;;;;1.10;0.67;;;7.00;99.90;;;;;;5052569;28;20961;-81
2022/01/05 08:21:21;;;;;;;0.97;0.80;;;7.00;99.90;;;;;;5053108;28;20489;-81
2022/01/05 08:23:51;;;;;;;1.20;1.10;;;7.20;99.90;;;;;;5050270;28;20487;-82
2022/01/05 08:26:19;;;;;;;1.00;0.60;;;7.20;99.90;;;;;;5059017;28;20454;-81
2022/01/05 08:28:47;;;;;;;0.77;0.70;;;7.20;99.90;;;;;;5071007;28;21095;-82
2022/01/05 08:31:16;;;;;;;1.10;1.00;;;7.30;99.90;;;;;;5059125;28;20486;-82
2022/01/05 08:33:49;;;;;;;1.93;0.87;;;7.20;99.90;;;;;;5072636;28;20981;-82
2022/01/05 08:36:17;;;;;;;0.77;0.77;;;7.20;99.90;;;;;;5058918;28;20832;-82
2022/01/05 08:38:45;;;;;;;0.80;0.63;;;7.20;99.90;;;;;;5063769;28;20443;-82
2022/01/05 08:41:13;;;;;;;1.63;0.90;;;7.10;99.90;;;;;;5066645;28;20461;-82
2022/01/05 08:43:42;;;;;;;0.80;0.80;;;7.00;99.90;;;;;;5072838;28;20841;-81
2022/01/05 08:46:10;;;;;;;1.40;1.30;;;7.00;99.90;;;;;;5063032;28;20457;-82
2022/01/05 08:48:40;;;;;;;1.00;0.70;;;6.90;99.90;;;;;;5063580;28;20455;-82
2022/01/05 08:51:10;;;;;;;0.95;0.85;;;6.90;99.90;;;;;;5051961;28;20455;-82
2022/01/05 08:53:41;;;;;;;1.57;0.73;;;7.00;99.90;;;;;;5059331;28;20221;-81
2022/01/05 08:56:10;;;;;;;1.53;0.90;;;7.10;99.90;;;;;;5068709;28;20439;-82
2022/01/05 08:58:40;;;;;;;1.17;0.90;;;7.10;99.90;;;;;;5062406;28;20448;-82
2022/01/05 09:01:11;;;;;;;0.80;0.80;;;7.00;99.90;;;;;;5065930;28;20462;-82
2022/01/05 09:03:39;;;;;;;1.33;0.80;;;6.90;99.90;;;;;;5052517;28;20482;-83
2022/01/05 09:06:07;;;;;;;1.80;0.80;;;6.90;99.90;;;;;;5055768;28;20457;-82
2022/01/05 09:08:38;;;;;;;0.97;0.90;;;6.90;99.90;;;;;;5059121;28;21001;-82
2022/01/05 09:11:08;;;;;;;0.83;0.80;;;6.90;99.90;;;;;;5052047;28;20462;-82
2022/01/05 09:13:36;;;;;;;1.73;0.93;;;6.90;99.90;;;;;;5052387;28;20471;-81
2022/01/05 09:16:05;;;;;;;2.33;0.90;;;6.90;99.90;;;;;;5050068;28;20460;-82
2022/01/05 09:18:34;;;;;;;1.38;0.90;;;7.10;99.90;;;;;;5051786;28;20455;-82
2022/01/05 09:21:02;;;;;;;3.20;1.00;;;7.10;99.90;;;;;;5069176;28;20212;-81
2022/01/05 09:23:30;;;;;;;1.70;1.00;;;7.20;99.90;;;;;;5069416;28;20876;-82
2022/01/05 09:26:00;;;;;;;0.83;0.73;;;7.10;99.90;;;;;;5071782;28;20538;-82
2022/01/05 09:28:28;;;;;;;4.70;0.90;;;7.10;99.90;;;;;;5077391;28;20454;-82
2022/01/05 09:30:57;;;;;;;0.77;0.77;;;7.10;99.90;;;;;;5065214;28;20534;-82
2022/01/05 09:33:25;;;;;;;2.23;0.67;;;7.00;99.90;;;;;;5051819;28;20483;-82
2022/01/05 09:36:02;;;;;;;1.17;0.97;;;7.10;99.90;;;;;;5051674;28;20475;-81
2022/01/05 09:41:56;;;;;;;2.73;0.70;;;7.20;99.90;;;;;;5050941;28;21104;-82
2022/01/05 09:44:11;;;;;;;0.70;0.70;;;7.20;99.90;;;;;;5063324;28;20483;-82
2022/01/05 09:46:50;;;;;;;1.63;0.70;;;7.30;99.90;;;;;;5065377;28;20543;-82
2022/01/05 09:49:23;;;;;;;2.40;0.70;;;7.40;99.90;;;;;;5050648;28;21030;-82
2022/01/05 09:51:55;;;;;;;0.97;0.87;;;7.50;99.90;;;;;;5051545;28;20455;-82
2022/01/05 09:54:25;;;;;;;1.03;0.83;;;7.60;99.90;;;;;;5056770;28;20481;-84
2022/01/05 09:56:59;;;;;;;1.87;0.90;;;7.80;99.90;;;;;;5071952;28;20481;-84
2022/01/05 09:59:28;;;;;;;1.90;0.80;;;8.00;99.90;;;;;;5052451;28;20436;-86
2022/01/05 10:01:57;;;;;;;1.00;0.87;;;8.10;99.90;;;;;;5052196;28;20451;-84
2022/01/05 10:04:26;;;;;;;3.13;0.87;;;8.30;99.90;;;;;;5050587;28;20940;-84
2022/01/05 10:06:54;;;;;;;1.17;1.00;;;8.30;99.90;;;;;;5051970;28;20719;-84
2022/01/05 10:09:22;;;;;;;0.97;0.80;;;8.30;99.90;;;;;;5067341;28;20500;-84
2022/01/05 10:11:50;;;;;;;1.93;0.60;;;8.20;99.90;;;;;;5062018;28;21121;-83
2022/01/05 10:14:20;;;;;;;2.10;0.70;;;8.10;99.90;;;;;;5066011;28;21025;-84
2022/01/05 10:17:03;;;;;;;2.90;0.80;;;7.90;99.90;;;;;;5071892;28;20450;-84
2022/01/05 10:19:32;;;;;;;4.20;0.80;;;7.90;99.90;;;;;;5057532;28;20459;-84
2022/01/05 10:22:01;;;;;;;0.93;0.77;;;7.80;99.90;;;;;;5070264;28;20463;-83
2022/01/05 10:24:46;;;;;;;1.77;0.70;;;7.80;99.90;;;;;;5053917;28;20485;-84
2022/01/05 10:27:18;;;;;;;4.03;1.17;;;7.80;99.90;;;;;;5075241;28;20462;-84
2022/01/05 10:29:58;;;;;;;2.03;0.90;;;7.70;99.90;;;;;;5057713;28;20458;-84
2022/01/05 10:32:29;;;;;;;3.50;0.90;;;7.70;99.90;;;;;;5055355;28;20467;-84
2022/01/05 10:35:08;;;;;;;0.70;0.70;;;7.80;99.90;;;;;;5051582;28;20472;-84
2022/01/05 10:37:39;;;;;;;1.27;0.90;;;7.70;99.90;;;;;;5068201;28;20450;-84
2022/01/05 10:40:19;;;;;;;3.60;0.70;;;7.70;99.90;;;;;;5058653;28;20484;-85
2022/01/05 10:42:50;;;;;;;0.97;0.80;;;7.70;99.90;;;;;;5051234;28;21006;-84
2022/01/05 10:45:22;;;;;;;5.63;0.90;;;7.70;99.90;;;;;;5052720;28;20463;-85
2022/01/05 10:48:09;;;;;;;1.10;0.80;;;7.70;99.90;;;;;;5052605;28;20460;-84
2022/01/05 10:50:38;;;;;;;2.03;1.10;;;7.70;99.90;;;;;;5058352;28;20483;-84
2022/01/05 10:53:08;;;;;;;2.30;1.10;;;7.90;99.90;;;;;;5052300;28;20567;-85
2022/01/05 10:55:40;;;;;;;0.80;0.70;;;8.20;99.90;;;;;;5055434;28;20471;-85
2022/01/05 10:58:11;;;;;;;2.57;0.80;;;8.50;99.90;;;;;;5055904;28;20857;-85
2022/01/05 11:00:43;;;;;;;1.90;0.70;;;8.70;99.90;;;;;;5069338;28;20451;-86
2022/01/05 11:03:26;;;;;;;1.40;0.80;;;9.00;99.90;;;;;;5057249;28;20522;-84
2022/01/05 11:06:02;;;;;;;1.60;1.00;;;9.20;99.90;;;;;;5055392;28;20462;-85
2022/01/05 11:08:31;;;;;;;1.50;0.70;;;9.50;99.90;;;;;;5050729;28;20827;-84
2022/01/05 11:10:59;;;;;;;4.77;0.80;;;9.60;99.90;;;;;;5064685;28;20456;-85
2022/01/05 11:13:28;;;;;;;2.57;0.80;;;9.80;99.90;;;;;;5060763;28;20564;-85
2022/01/05 11:15:59;;;;;;;3.67;0.77;;;10.00;99.90;;;;;;5066318;28;20472;-85
2022/01/05 11:18:31;;;;;;;4.20;0.90;;;10.10;99.90;;;;;;5053464;28;20463;-85
2022/01/05 11:21:01;;;;;;;1.93;0.70;;;10.40;99.90;;;;;;5064549;28;20528;-85
2022/01/05 11:23:32;;;;;;;1.10;0.90;;;10.50;99.90;;;;;;5059543;28;20462;-85
2022/01/05 11:26:02;;;;;;;2.43;0.80;;;10.50;99.90;;;;;;5071219;28;20438;-85
2022/01/05 11:28:31;;;;;;;2.63;0.80;;;10.50;99.90;;;;;;5059329;28;20463;-85
2022/01/05 11:31:01;;;;;;;4.87;0.80;;;10.50;99.90;;;;;;5064173;28;20468;-85
2022/01/05 11:33:29;;;;;;;1.43;0.83;;;10.20;99.90;;;;;;5050602;28;20480;-86
2022/01/05 11:35:58;;;;;;;4.50;0.80;;;10.00;99.90;;;;;;5055167;28;20470;-86
2022/01/05 11:38:26;;;;;;;6.00;0.83;;;10.00;99.90;;;;;;5056770;28;20610;-84
2022/01/05 11:40:56;;;;;;;5.53;1.00;;;9.70;97.40;;;;;;5052428;28;20479;-84
2022/01/05 11:43:27;;;;;;;2.60;1.03;;;9.40;96.30;;;;;;5059429;28;20478;-84
2022/01/05 11:45:56;;;;;;;3.90;0.80;;;9.10;94.80;;;;;;5050148;28;20807;-83
2022/01/05 11:48:28;;;;;;;1.17;0.80;;;9.10;95.40;;;;;;5048904;28;20461;-83
2022/01/05 11:50:58;;;;;;;4.90;1.00;;;9.00;94.00;;;;;;5049609;28;20466;-82
2022/01/05 11:53:37;;;;;;;2.20;0.90;;;9.00;95.00;;;;;;5055078;28;21031;-83
2022/01/05 11:56:15;;;;;;;3.40;0.83;;;9.00;93.20;;;;;;5063551;28;21205;-84
2022/01/05 11:58:56;;;;;;;3.20;1.20;;;8.90;95.50;;;;;;5067105;28;20508;-84
2022/01/05 12:01:33;;;;;;;3.80;0.80;;;8.90;96.00;;;;;;5066836;28;20528;-82
2022/01/05 12:04:09;;;;;;;1.33;0.70;;;8.80;95.90;;;;;;5064272;28;21114;-83
2022/01/05 12:07:10;;;;;;;2.43;1.20;;;8.60;95.50;;;;;;5051878;28;20452;-83
2022/01/05 12:09:40;;;;;;;4.27;0.80;;;8.80;96.30;;;;;;5053419;28;20949;-82
2022/01/05 12:12:31;;;;;;;4.93;1.17;;;9.00;98.20;;;;;;5051753;28;20465;-83
2022/01/05 12:15:02;;;;;;;3.43;0.90;;;9.00;96.10;;;;;;5055618;28;20450;-83
2022/01/05 12:17:32;;;;;;;1.10;0.80;;;8.90;96.60;;;;;;5061918;28;20494;-82
2022/01/05 12:20:11;;;;;;;2.43;0.67;;;9.10;96.80;;;;;;5053087;28;20947;-83
2022/01/05 12:22:41;;;;;;;3.80;0.70;;;9.20;96.30;;;;;;5048843;28;20472;-83
2022/01/05 12:25:23;;;;;;;4.53;1.00;;;9.40;98.20;;;;;;5056973;28;20498;-83
2022/01/05 12:27:58;;;;;;;0.70;0.70;;;9.60;99.50;;;;;;5058122;28;20485;-83
2022/01/05 12:30:41;;;;;;;2.83;0.80;;;9.60;99.20;;;;;;5052713;28;20542;-83
2022/01/05 12:33:18;;;;;;;1.80;0.80;;;9.70;99.20;;;;;;5052949;28;20476;-84
2022/01/05 12:36:00;;;;;;;1.43;0.73;;;9.70;96.70;;;;;;5052820;28;20481;-83
2022/01/05 12:38:40;;;;;;;0.87;0.87;;;9.80;96.60;;;;;;5052053;28;20489;-83
2022/01/05 12:41:40;;;;;;;2.50;0.77;;;9.70;96.20;;;;;;5067674;28;20473;-84
2022/01/05 12:44:35;;;;;;;4.87;0.97;;;9.80;96.30;;;;;;5065789;28;20562;-83
2022/01/05 12:47:04;;;;;;;2.83;0.60;;;9.80;96.40;;;;;;5019692;28;20466;-83
2022/01/05 12:49:34;;;;;;;3.07;0.93;;;9.80;96.30;;;;;;5051621;28;20465;-83
2022/01/05 12:52:12;;;;;;;4.53;0.93;;;9.80;96.70;;;;;;5052444;28;20459;-83
2022/01/05 12:54:43;;;;;;;1.13;0.90;;;9.90;96.90;;;;;;5052554;28;21032;-83
2022/01/05 12:57:18;;;;;;;4.83;0.80;;;9.90;96.40;;;;;;5052174;28;20479;-84
2022/01/05 12:59:50;;;;;;;1.00;0.80;;;9.90;94.30;;;;;;5052103;28;20461;-84
2022/01/05 13:02:25;;;;;;;3.33;1.03;;;9.90;94.00;;;;;;5071022;28;20453;-84
2022/01/05 13:04:57;;;;;;;6.00;0.77;;;9.80;92.20;;;;;;5072331;28;20457;-84
2022/01/05 13:07:27;;;;;;;1.53;1.10;;;9.90;93.60;;;;;;5067120;28;20525;-83
2022/01/05 13:09:57;;;;;;;1.93;1.20;;;9.80;93.20;;;;;;5052384;28;20448;-83
2022/01/05 13:12:27;;;;;;;1.20;0.80;;;9.30;83.70;;;;;;5056654;28;20472;-83
2022/01/05 13:14:57;;;;;;;3.60;1.00;;;9.20;86.20;;;;;;5058656;28;20469;-84
2022/01/05 13:17:28;;;;;;;2.70;1.03;;;9.20;81.90;;;;;;5057204;28;20474;-83